General Aviation Weather

Text Reports

Enter one or more of the following location identifiers separated by a space:

Zip Code, Four-Character ICAO or Three-Character IATA airport codes.

METAR - Aviation Routine Weather Report
KHWD - Hayward, California
Updated at 11:54 PM GMT on February 26, 2015 (3:54 PM PST):
METAR KHWD 262354Z 28011KT 10SM CLR 18/11 A2995 RMK AO2 SLP153 T01780111 10200 20156 56018
TAF - Terminal Area Forecast
KHWD - Hayward, California
Updated at 11:54 PM GMT on February 26, 2015 (3:54 PM PST):
No TAF is currently available for this location.
Decoded:
No decoded TAF is available.
PIREP - Pilot Weather Report
KHWD - Hayward, California
Updated at 11:54 PM GMT on February 26, 2015 (3:54 PM PST):
No PIREP is currently available for this location.
AIRMET - Airmens Meteorological Information
KHWD - Hayward, California
Updated at 11:54 PM GMT on February 26, 2015 (3:54 PM PST):
No AIRMET is currently available for this location.
SIGMET - Significant Meteorological Information
KHWD - Hayward, California
Updated at 11:54 PM GMT on February 26, 2015 (3:54 PM PST):
No SIGMET is currently available for this location.
NOTAM - Notice to Airmen
KHWD - Hayward, California
Updated at 11:54 PM GMT on February 26, 2015 (3:54 PM PST):
No NOTAM is currently available for this location.
Forecast Area
KHWD - Hayward, California
Updated at 11:54 PM GMT on February 26, 2015 (3:54 PM PST):
No NOTAM is currently available for this location.
Aviation Weather Maps